Buckley Air Force Base
KBKF : now visible

Airfield :











YOU CAN JOIN US ON...

 
LOGIN :

Register | Disclaimer

   EN    FR    IT 

 









Legend :    VFR   Marginal VFR   IFR   Intensive IFR   Very Intensive IFR
Visi :
Ceiling :
>= 8 km
>= 3000ft
5 to 8 km
1000 to 3000 ft
1500m to 5 km
500 to 1000 ft
800 to 1500m
200 to 500 ft
< 800m
< 200 ft
Symbols :   Thunderstorms  Fog  Heavy snow  Heavy precipitations  Wind > 20 kt






- Airport Elevation : 5662 ft


KBKF - Buckley Air Force Base

CURRENT METAR :
  • 190958Z 18008KT 10SM SCT120 BKN200 20/02 A3001 RMK AO2A SLP074 T01960015

EXPIRED METARs :
  • 190858Z 18006KT 10SM FEW140 BKN200 17/03 A3003 RMK AO2A SLP084 T01710027 58001
  • 190758Z 17007KT 10SM FEW140 BKN200 18/03 A3005 RMK AO2A SLP091 T01760027

TAF TAF KBKF
Valid from the 19 at 09:00 until the 20 at 15:00 UTC


190905Z 1909/2015 VRB06KT 9999 FEW140 BKN200 QNH2993INS
BECMG 1918/1919 30010G15KT 9999 SCT100 520003 QNH2982INS
BECMG 2001/2002 VRB06KT 9999 FEW095 QNH2984INS
BECMG 2009/2010 10006KT 9999 -RA BKN060 QNH3000INS TX28/1921Z TN12/2008Z
KZDV FIR / North America



MET'MAP, your aeronautical weather chart ! - Copyright ORBIFLY December 2007 - Disclaimer

ORBIFLY MET'MAP TEAM :

Programming & Development : Alexandra Zaïnal
Concept & original design : Baudouin d'Aumeries
Assistance for programming : Marc-Olivier Méhu
Technical & hardware support : Manuel Goepfert

Contact : metmap@orbifly.com




SOURCES & CREDITS :

   NOAA       Earth
Advisory